Time;durP1;ratioP1;P1;durP2;ratioP2;P2;SDS_P1;SDS_P2;PMS_P1;PMS_P2;Temp;Humidity;BMP_temperature;BMP_pressure;BME280_temperature;BME280_humidity;BME280_pressure;Samples;Min_cycle;Max_cycle;Signal;HPM_P1;HPM_P2
2022/07/18 00:00:32;;;;;;;7.82;3.25;;;16.30;99.90;;;;;;5049125;28;20033;-59
2022/07/18 00:02:58;;;;;;;8.88;3.47;;;16.30;99.90;;;;;;5048829;28;20029;-58
2022/07/18 00:05:24;;;;;;;5.85;2.90;;;16.30;99.90;;;;;;5047504;28;20037;-60
2022/07/18 00:07:49;;;;;;;4.95;2.75;;;16.30;99.90;;;;;;5049655;28;20127;-59
2022/07/18 00:10:15;;;;;;;5.47;2.55;;;16.30;99.90;;;;;;5047678;28;20058;-60
2022/07/18 00:12:41;;;;;;;8.93;3.30;;;16.40;99.90;;;;;;5049648;28;20445;-59
2022/07/18 00:15:08;;;;;;;7.75;2.65;;;16.40;99.90;;;;;;5045225;28;20041;-60
2022/07/18 00:17:33;;;;;;;5.07;2.58;;;16.40;99.90;;;;;;5045703;28;20107;-59
2022/07/18 00:19:59;;;;;;;6.22;2.80;;;16.30;99.90;;;;;;5048273;28;20487;-59
2022/07/18 00:22:24;;;;;;;5.85;2.70;;;16.30;99.90;;;;;;5049163;28;20121;-59
2022/07/18 00:24:50;;;;;;;4.55;2.45;;;16.20;99.90;;;;;;5048566;28;20028;-58
2022/07/18 00:27:16;;;;;;;8.23;2.70;;;16.20;99.90;;;;;;5048179;28;20040;-59
2022/07/18 00:29:41;;;;;;;4.68;2.30;;;16.20;99.90;;;;;;5047831;28;20464;-59
2022/07/18 00:32:08;;;;;;;7.03;2.60;;;16.20;99.90;;;;;;5048666;28;20032;-60
2022/07/18 00:34:34;;;;;;;5.82;2.65;;;16.10;99.90;;;;;;5047646;28;20518;-60
2022/07/18 00:37:00;;;;;;;5.75;2.13;;;16.10;99.90;;;;;;5049076;28;20673;-58
2022/07/18 00:39:26;;;;;;;4.50;2.35;;;16.20;99.90;;;;;;5048432;28;20025;-60
2022/07/18 00:41:52;;;;;;;4.18;1.95;;;16.20;99.90;;;;;;5048581;28;20029;-60
2022/07/18 00:44:19;;;;;;;8.13;2.13;;;16.20;99.90;;;;;;5048715;28;20130;-59
2022/07/18 00:46:45;;;;;;;5.82;2.60;;;16.30;99.90;;;;;;5047053;28;20024;-60
2022/07/18 00:49:11;;;;;;;7.18;2.30;;;16.40;99.90;;;;;;5047221;28;20108;-60
2022/07/18 00:51:38;;;;;;;5.15;2.45;;;16.40;99.90;;;;;;5047243;28;20033;-60
2022/07/18 00:54:04;;;;;;;10.82;2.85;;;16.40;99.90;;;;;;5047971;28;20161;-60
2022/07/18 00:56:29;;;;;;;6.47;2.95;;;16.40;99.90;;;;;;5048227;28;20444;-60
2022/07/18 00:58:55;;;;;;;6.10;2.38;;;16.40;99.90;;;;;;5048241;28;20029;-60
2022/07/18 01:04:05;;;;;;;11.48;2.75;;;16.30;99.90;;;;;;5046693;28;20032;-60
2022/07/18 01:06:30;;;;;;;4.43;2.60;;;16.20;99.90;;;;;;5048475;28;20037;-60
2022/07/18 01:08:57;;;;;;;7.13;2.90;;;16.10;99.90;;;;;;5047299;28;20027;-57
2022/07/18 01:11:23;;;;;;;6.95;2.72;;;16.00;99.90;;;;;;5047186;28;20033;-58
2022/07/18 01:13:49;;;;;;;4.63;2.40;;;15.90;99.90;;;;;;5046880;28;20029;-60
2022/07/18 01:16:16;;;;;;;10.18;3.20;;;15.80;99.90;;;;;;5048462;28;20025;-59
2022/07/18 01:18:49;;;;;;;4.25;2.10;;;15.80;99.90;;;;;;5046446;28;20117;-60
2022/07/18 01:21:15;;;;;;;4.03;2.38;;;15.80;99.90;;;;;;5048359;28;20025;-60
2022/07/18 01:23:42;;;;;;;12.23;3.10;;;15.80;99.90;;;;;;5072627;22;20041;-57
2022/07/18 01:26:08;;;;;;;5.32;1.98;;;15.80;99.90;;;;;;5047360;28;20037;-56
2022/07/18 01:28:34;;;;;;;7.22;2.60;;;15.70;99.90;;;;;;5048574;28;20106;-58
2022/07/18 01:30:59;;;;;;;2.63;2.20;;;15.70;99.90;;;;;;5052447;28;20076;-56
2022/07/18 01:33:25;;;;;;;5.00;1.98;;;15.70;99.90;;;;;;5037966;28;20037;-58
2022/07/18 01:35:51;;;;;;;7.50;2.20;;;15.70;99.90;;;;;;5030469;28;20029;-55
2022/07/18 01:38:18;;;;;;;5.10;2.25;;;15.60;99.90;;;;;;5032908;28;20034;-58
2022/07/18 01:40:45;;;;;;;4.78;2.40;;;15.60;99.90;;;;;;5031316;28;20049;-57
2022/07/18 01:43:10;;;;;;;3.22;2.05;;;15.60;99.90;;;;;;5030186;28;20034;-54
2022/07/18 01:45:36;;;;;;;5.28;2.30;;;15.60;99.90;;;;;;5030406;28;20021;-58
2022/07/18 01:48:02;;;;;;;3.78;1.90;;;15.60;99.90;;;;;;5033396;28;20024;-55
2022/07/18 01:50:28;;;;;;;6.05;2.35;;;15.60;99.90;;;;;;5030982;28;20030;-55
2022/07/18 01:52:53;;;;;;;6.45;2.10;;;15.70;99.90;;;;;;5027423;28;20435;-57
2022/07/18 01:55:19;;;;;;;10.20;2.47;;;15.60;99.90;;;;;;5032277;28;20132;-58
2022/07/18 01:57:44;;;;;;;5.15;2.78;;;15.60;99.90;;;;;;5031400;28;20044;-58
2022/07/18 02:00:11;;;;;;;4.13;2.35;;;15.60;99.90;;;;;;5032783;28;20104;-58
2022/07/18 02:02:37;;;;;;;3.55;2.13;;;15.60;99.90;;;;;;5030772;28;20553;-58
2022/07/18 02:05:05;;;;;;;5.70;2.53;;;15.50;99.90;;;;;;5033940;28;20033;-57
2022/07/18 02:07:38;;;;;;;5.15;2.10;;;15.50;99.90;;;;;;5034463;28;20034;-58
2022/07/18 02:10:12;;;;;;;4.40;2.85;;;15.50;99.90;;;;;;5030793;28;20543;-58
2022/07/18 02:12:38;;;;;;;;;;;15.50;99.90;;;;;;5031644;28;20837;-57
2022/07/18 02:15:05;;;;;;;4.07;2.08;;;15.50;99.90;;;;;;5034783;28;19962;-55
2022/07/18 02:17:31;;;;;;;5.18;1.95;;;15.60;99.90;;;;;;5032275;28;20462;-55
2022/07/18 02:19:56;;;;;;;3.25;1.90;;;15.50;99.90;;;;;;5034829;28;20025;-58
2022/07/18 02:22:22;;;;;;;4.70;2.15;;;15.50;99.90;;;;;;5033527;28;20495;-56
2022/07/18 02:24:48;;;;;;;7.50;2.42;;;15.50;99.90;;;;;;5031800;28;20025;-56
2022/07/18 02:27:14;;;;;;;5.22;2.17;;;15.40;99.90;;;;;;5031575;28;20030;-57
2022/07/18 02:29:39;;;;;;;3.75;2.30;;;15.40;99.90;;;;;;5031962;28;20587;-56
2022/07/18 02:32:05;;;;;;;2.50;1.73;;;15.40;99.90;;;;;;5029046;28;20100;-57
2022/07/18 02:34:31;;;;;;;3.20;2.28;;;15.40;99.90;;;;;;5031237;28;20029;-54
2022/07/18 02:36:56;;;;;;;2.40;2.13;;;15.40;99.90;;;;;;5032345;28;20480;-55
2022/07/18 02:39:22;;;;;;;2.90;1.80;;;15.30;99.90;;;;;;5030474;28;20032;-55
2022/07/18 02:41:48;;;;;;;7.13;2.28;;;15.30;99.90;;;;;;5031018;28;20038;-54
2022/07/18 02:44:14;;;;;;;5.85;2.47;;;15.30;99.90;;;;;;5031515;28;20079;-55
2022/07/18 02:46:40;;;;;;;3.38;2.13;;;15.20;99.90;;;;;;5029168;28;20109;-57
2022/07/18 02:49:05;;;;;;;7.90;2.58;;;15.10;99.90;;;;;;5031968;28;20403;-56
2022/07/18 02:51:32;;;;;;;6.40;2.83;;;15.00;99.90;;;;;;5029579;28;20294;-57
2022/07/18 02:53:57;;;;;;;6.43;2.72;;;14.90;99.90;;;;;;5031209;28;20129;-54
2022/07/18 02:56:23;;;;;;;2.42;1.95;;;14.90;99.90;;;;;;5030398;28;20546;-55
2022/07/18 02:58:48;;;;;;;5.65;2.42;;;14.80;99.90;;;;;;5031985;28;20432;-56
2022/07/18 03:01:14;;;;;;;2.85;2.03;;;14.80;99.90;;;;;;5028654;28;20388;-55
2022/07/18 03:03:39;;;;;;;5.72;2.58;;;14.80;99.90;;;;;;5028097;28;20033;-55
2022/07/18 03:06:05;;;;;;;8.95;2.28;;;14.80;99.90;;;;;;5031660;28;20060;-55
2022/07/18 03:08:30;;;;;;;6.47;2.40;;;14.80;99.90;;;;;;5031428;28;20033;-56
2022/07/18 03:10:56;;;;;;;5.63;2.58;;;14.80;99.90;;;;;;5031002;28;20079;-54
2022/07/18 03:13:21;;;;;;;3.80;2.33;;;14.70;99.90;;;;;;5030748;28;20075;-55
2022/07/18 03:15:47;;;;;;;5.90;2.35;;;14.70;99.90;;;;;;5030224;28;20068;-55
2022/07/18 03:18:13;;;;;;;12.38;2.55;;;14.70;99.90;;;;;;5030692;28;20876;-55
2022/07/18 03:20:38;;;;;;;5.22;2.22;;;14.70;99.90;;;;;;5031129;28;20068;-57
2022/07/18 03:23:07;;;;;;;4.78;2.58;;;14.70;99.90;;;;;;5027898;28;20029;-56
2022/07/18 03:25:33;;;;;;;5.75;2.90;;;14.60;99.90;;;;;;5036908;28;20467;-57
2022/07/18 03:27:59;;;;;;;3.83;2.83;;;14.50;99.90;;;;;;5030775;28;20025;-56
2022/07/18 03:30:25;;;;;;;5.35;2.40;;;14.50;99.90;;;;;;5029546;28;20025;-54
2022/07/18 03:32:50;;;;;;;5.30;2.78;;;14.50;99.90;;;;;;5030022;28;20083;-56
2022/07/18 03:35:16;;;;;;;4.25;2.53;;;14.50;99.90;;;;;;5029609;28;20156;-54
2022/07/18 03:37:41;;;;;;;2.95;2.22;;;14.40;99.90;;;;;;5028768;28;20057;-55
2022/07/18 03:40:08;;;;;;;4.70;2.35;;;14.30;99.90;;;;;;5030320;28;20033;-54
2022/07/18 03:42:37;;;;;;;3.72;2.42;;;14.30;99.90;;;;;;5027790;28;20381;-57
2022/07/18 03:45:03;;;;;;;5.63;2.10;;;14.30;99.90;;;;;;5029958;28;20094;-55
2022/07/18 03:47:29;;;;;;;3.10;2.30;;;14.20;99.90;;;;;;5029055;28;20029;-55
2022/07/18 03:49:54;;;;;;;3.28;2.35;;;14.20;99.90;;;;;;5029608;28;20029;-55
2022/07/18 03:52:20;;;;;;;5.10;2.45;;;14.20;99.90;;;;;;5028785;28;20036;-56
2022/07/18 03:54:46;;;;;;;5.00;2.65;;;14.10;99.90;;;;;;5033619;28;20155;-56
2022/07/18 03:57:11;;;;;;;9.85;2.90;;;14.10;99.90;;;;;;5029859;28;20494;-55
2022/07/18 03:59:37;;;;;;;8.80;2.47;;;14.10;99.90;;;;;;5029326;28;20037;-56
2022/07/18 04:02:02;;;;;;;5.57;2.63;;;14.10;99.90;;;;;;5029944;28;20033;-54
2022/07/18 04:04:28;;;;;;;8.02;2.90;;;14.10;99.90;;;;;;5029511;28;20029;-55
2022/07/18 04:06:54;;;;;;;10.32;3.38;;;14.10;99.90;;;;;;5028720;28;20037;-57
2022/07/18 04:09:19;;;;;;;5.82;3.05;;;14.20;99.90;;;;;;5033747;28;20056;-55
2022/07/18 04:11:45;;;;;;;6.55;2.83;;;14.20;99.90;;;;;;5029012;28;20040;-55
2022/07/18 04:14:11;;;;;;;6.05;3.03;;;14.30;99.90;;;;;;5028665;28;20029;-55
2022/07/18 04:16:36;;;;;;;4.72;2.45;;;14.30;99.90;;;;;;5030643;28;20045;-55
2022/07/18 04:19:02;;;;;;;5.47;3.20;;;14.30;99.90;;;;;;5029876;28;20072;-55
2022/07/18 04:21:27;;;;;;;6.32;2.65;;;14.40;99.90;;;;;;5030327;28;20083;-58
2022/07/18 04:23:53;;;;;;;11.30;3.25;;;14.40;99.90;;;;;;5031996;28;20025;-55
2022/07/18 04:26:19;;;;;;;5.28;2.80;;;14.50;99.90;;;;;;5028921;28;20063;-54
2022/07/18 04:28:44;;;;;;;7.07;2.75;;;14.50;99.90;;;;;;5030770;28;20025;-55
2022/07/18 04:31:10;;;;;;;4.35;2.67;;;14.50;99.90;;;;;;5031424;28;20093;-55
2022/07/18 04:33:35;;;;;;;4.45;2.47;;;14.50;99.90;;;;;;5035161;28;20096;-55
2022/07/18 04:36:01;;;;;;;7.07;3.03;;;14.50;99.90;;;;;;5030154;28;20045;-56
2022/07/18 04:38:28;;;;;;;5.03;2.30;;;14.50;99.90;;;;;;5029290;28;20025;-55
2022/07/18 04:40:54;;;;;;;7.43;2.80;;;14.60;99.90;;;;;;5029588;28;20071;-56
2022/07/18 04:43:19;;;;;;;6.35;2.70;;;14.60;99.90;;;;;;5030966;28;20037;-55
2022/07/18 04:45:45;;;;;;;4.28;2.30;;;14.70;99.90;;;;;;5031553;28;20045;-55
2022/07/18 04:48:10;;;;;;;11.63;3.25;;;14.80;99.90;;;;;;5031000;28;20030;-57
2022/07/18 04:50:36;;;;;;;4.97;2.60;;;14.70;99.90;;;;;;5033773;28;20037;-55
2022/07/18 04:53:02;;;;;;;4.55;2.53;;;14.90;99.90;;;;;;5033061;28;20034;-57
2022/07/18 04:55:28;;;;;;;3.33;2.55;;;14.90;99.90;;;;;;5030715;28;20041;-56
2022/07/18 04:57:54;;;;;;;4.78;2.72;;;15.00;99.90;;;;;;5030773;28;20084;-56
2022/07/18 05:00:22;;;;;;;4.25;2.75;;;15.00;99.90;;;;;;5027740;28;20034;-55
2022/07/18 05:02:50;;;;;;;3.47;2.55;;;15.10;99.90;;;;;;5031607;28;20518;-55
2022/07/18 05:05:18;;;;;;;6.22;2.70;;;15.10;99.90;;;;;;5033186;28;20030;-55
2022/07/18 05:07:45;;;;;;;6.35;2.60;;;15.20;99.90;;;;;;5038052;28;20025;-55
2022/07/18 05:10:13;;;;;;;6.10;2.67;;;15.30;99.90;;;;;;5033932;28;20029;-55
2022/07/18 05:12:41;;;;;;;5.47;2.42;;;15.30;99.90;;;;;;5034328;28;20029;-58
2022/07/18 05:15:10;;;;;;;3.65;2.38;;;15.40;99.90;;;;;;5034637;28;20484;-58
2022/07/18 05:17:35;;;;;;;3.38;2.13;;;15.50;99.90;;;;;;5034145;28;20045;-58
2022/07/18 05:20:01;;;;;;;3.30;2.30;;;15.60;99.90;;;;;;5033642;28;20029;-57
2022/07/18 05:22:27;;;;;;;4.05;1.55;;;15.60;99.90;;;;;;5036890;28;20442;-55
2022/07/18 05:24:52;;;;;;;5.22;1.65;;;15.70;99.90;;;;;;5034518;28;20438;-56
2022/07/18 05:27:18;;;;;;;8.68;2.00;;;15.80;99.90;;;;;;5032856;28;20029;-55
2022/07/18 05:29:43;;;;;;;6.53;1.98;;;15.90;99.90;;;;;;5038719;28;20029;-58
2022/07/18 05:32:11;;;;;;;4.10;2.13;;;16.00;99.90;;;;;;5032512;28;20511;-55
2022/07/18 05:34:36;;;;;;;2.30;1.70;;;16.00;99.90;;;;;;5032453;28;20357;-57
2022/07/18 05:37:02;;;;;;;3.63;1.92;;;16.20;99.90;;;;;;5035749;28;20071;-58
2022/07/18 05:39:28;;;;;;;3.03;1.60;;;16.30;99.90;;;;;;5033463;28;20044;-58
2022/07/18 05:41:53;;;;;;;3.60;2.00;;;16.40;99.90;;;;;;5032740;28;20399;-58
2022/07/18 05:44:20;;;;;;;2.00;1.60;;;16.50;99.90;;;;;;5032266;28;20098;-58
2022/07/18 05:46:46;;;;;;;5.25;1.40;;;16.60;99.90;;;;;;5033059;28;20383;-58
2022/07/18 05:49:12;;;;;;;5.45;1.55;;;16.70;99.90;;;;;;5033165;28;20030;-58
2022/07/18 05:51:38;;;;;;;7.40;1.33;;;16.80;99.90;;;;;;5036763;28;20392;-58
2022/07/18 05:54:03;;;;;;;4.25;1.75;;;16.80;99.90;;;;;;5032811;28;20036;-58
2022/07/18 05:56:29;;;;;;;3.10;1.65;;;16.90;99.90;;;;;;5030359;28;20467;-57
2022/07/18 05:58:55;;;;;;;8.13;1.70;;;17.00;99.90;;;;;;5031821;28;20036;-55
2022/07/18 06:01:20;;;;;;;5.47;1.55;;;17.10;99.90;;;;;;5033333;28;20096;-58
2022/07/18 06:03:49;;;;;;;4.05;1.67;;;17.20;99.90;;;;;;5033792;28;20104;-56
2022/07/18 06:06:15;;;;;;;5.07;2.00;;;17.30;99.90;;;;;;5039189;28;20029;-58
2022/07/18 06:08:41;;;;;;;2.90;1.35;;;17.40;99.90;;;;;;5032546;28;20032;-58
2022/07/18 06:11:08;;;;;;;6.90;1.60;;;17.40;99.90;;;;;;5026466;28;20403;-57
2022/07/18 06:13:35;;;;;;;2.90;1.50;;;17.60;99.90;;;;;;5033604;28;20025;-58
2022/07/18 06:16:00;;;;;;;6.18;1.55;;;17.60;99.90;;;;;;5032584;28;20033;-58
2022/07/18 06:18:26;;;;;;;3.60;1.83;;;17.80;99.90;;;;;;5033254;28;20029;-58
2022/07/18 06:20:51;;;;;;;7.53;1.75;;;17.80;99.90;;;;;;5032138;28;20116;-56
2022/07/18 06:23:17;;;;;;;5.32;1.70;;;17.90;99.90;;;;;;5034592;28;20079;-55
2022/07/18 06:25:42;;;;;;;2.70;1.45;;;18.00;99.90;;;;;;5034782;28;20483;-57
2022/07/18 06:28:08;;;;;;;5.07;1.60;;;18.10;99.90;;;;;;5034734;28;20101;-58
2022/07/18 06:30:33;;;;;;;4.28;1.67;;;18.20;99.90;;;;;;5032585;28;20025;-56
2022/07/18 06:33:03;;;;;;;4.32;1.58;;;18.30;99.90;;;;;;5033017;28;20041;-56
2022/07/18 06:35:29;;;;;;;5.55;1.50;;;18.40;99.90;;;;;;5028560;28;20040;-58
2022/07/18 06:37:54;;;;;;;2.28;1.15;;;18.50;99.90;;;;;;5031153;28;20029;-58
2022/07/18 06:40:20;;;;;;;6.13;1.55;;;18.60;99.90;;;;;;5028602;28;20041;-58
2022/07/18 06:42:45;;;;;;;3.97;1.33;;;18.60;99.90;;;;;;5030371;28;20079;-57
2022/07/18 06:45:11;;;;;;;3.45;1.65;;;18.70;99.90;;;;;;5030819;28;20029;-55
2022/07/18 06:47:36;;;;;;;6.18;1.65;;;18.70;99.90;;;;;;5030262;28;20778;-56
2022/07/18 06:50:02;;;;;;;1.52;1.17;;;18.90;99.90;;;;;;5030526;28;20036;-56
2022/07/18 06:52:28;;;;;;;7.68;1.52;;;19.00;99.90;;;;;;5029009;28;20032;-56
2022/07/18 06:54:53;;;;;;;3.75;1.38;;;19.10;99.90;;;;;;5026289;28;20025;-57
2022/07/18 06:57:20;;;;;;;5.38;1.73;;;19.30;99.90;;;;;;5029808;28;20071;-59
2022/07/18 06:59:45;;;;;;;4.25;1.67;;;19.40;99.90;;;;;;5030451;28;20512;-58
2022/07/18 07:02:11;;;;;;;5.78;1.38;;;19.40;99.90;;;;;;5030386;28;20037;-57
2022/07/18 07:04:36;;;;;;;4.07;1.27;;;19.60;99.90;;;;;;5031568;28;20096;-58
2022/07/18 07:07:02;;;;;;;5.63;1.50;;;19.70;99.90;;;;;;5031093;28;20038;-56
2022/07/18 07:09:27;;;;;;;3.05;1.67;;;19.80;99.90;;;;;;5030249;28;20059;-58
2022/07/18 07:11:53;;;;;;;5.28;1.75;;;20.00;99.90;;;;;;5030143;28;20036;-57
2022/07/18 07:14:18;;;;;;;2.50;1.40;;;20.10;99.90;;;;;;5030465;28;20048;-59
2022/07/18 07:16:44;;;;;;;7.63;1.30;;;20.10;99.90;;;;;;5029668;28;20028;-59
2022/07/18 07:19:10;;;;;;;2.22;1.58;;;20.20;99.90;;;;;;5029366;28;20423;-58
2022/07/18 07:21:35;;;;;;;4.07;1.52;;;20.30;99.90;;;;;;5030195;28;20036;-59
2022/07/18 07:24:01;;;;;;;4.82;1.67;;;20.50;99.90;;;;;;5065853;22;20045;-59
2022/07/18 07:26:26;;;;;;;6.78;1.48;;;20.50;99.90;;;;;;5065875;28;20025;-59
2022/07/18 07:28:52;;;;;;;5.72;1.63;;;20.60;99.90;;;;;;5074312;28;20032;-59
2022/07/18 07:31:18;;;;;;;6.85;1.73;;;20.70;99.90;;;;;;5070085;28;20471;-58
2022/07/18 07:33:44;;;;;;;3.83;1.65;;;20.80;99.90;;;;;;5058907;28;20036;-58
2022/07/18 07:36:10;;;;;;;2.63;1.52;;;21.00;99.90;;;;;;5063242;28;20040;-59
2022/07/18 07:38:37;;;;;;;4.03;1.50;;;21.10;99.90;;;;;;5066217;28;20025;-59
2022/07/18 07:41:02;;;;;;;3.72;1.73;;;21.20;99.90;;;;;;5063829;28;20033;-59
2022/07/18 07:43:28;;;;;;;5.53;1.60;;;21.30;99.90;;;;;;5067428;28;20505;-59
2022/07/18 07:45:55;;;;;;;4.32;1.83;;;21.40;99.90;;;;;;5067177;28;20467;-59
2022/07/18 07:48:21;;;;;;;2.92;1.40;;;21.50;99.90;;;;;;5064943;28;20847;-59
2022/07/18 07:50:47;;;;;;;2.97;1.50;;;21.50;99.90;;;;;;5066035;28;20082;-60
2022/07/18 07:53:13;;;;;;;4.30;1.52;;;21.60;99.90;;;;;;5066278;28;20021;-59
2022/07/18 07:55:38;;;;;;;8.73;1.70;;;21.80;99.90;;;;;;5064984;28;20025;-59
2022/07/18 07:58:05;;;;;;;5.78;1.73;;;21.90;99.90;;;;;;5066760;28;20017;-59
2022/07/18 08:00:31;;;;;;;15.57;2.13;;;22.00;99.90;;;;;;5065362;28;20021;-60
2022/07/18 08:03:07;;;;;;;8.23;1.98;;;22.00;99.90;;;;;;5062286;28;20051;-59
2022/07/18 08:05:37;;;;;;;3.55;1.50;;;22.20;99.90;;;;;;5065788;28;20123;-59
2022/07/18 08:08:04;;;;;;;12.40;1.85;;;22.30;99.90;;;;;;5067934;28;20055;-59
2022/07/18 08:10:30;;;;;;;3.15;1.55;;;22.40;99.90;;;;;;5063720;28;20115;-59
2022/07/18 08:12:56;;;;;;;7.53;1.80;;;22.50;99.90;;;;;;5067616;28;20032;-59
2022/07/18 08:15:22;;;;;;;3.80;1.48;;;22.50;99.90;;;;;;5065526;28;20104;-59
2022/07/18 08:17:47;;;;;;;8.35;1.80;;;22.60;99.90;;;;;;5061561;28;20211;-60
2022/07/18 08:20:16;;;;;;;4.88;2.38;;;22.60;99.90;;;;;;5063989;28;20024;-60
2022/07/18 08:23:03;;;;;;;3.47;1.40;;;22.80;99.90;;;;;;5066285;28;20107;-59
2022/07/18 08:25:31;;;;;;;3.80;1.65;;;22.90;99.90;;;;;;5064742;28;20035;-60
2022/07/18 08:27:57;;;;;;;3.25;1.23;;;23.10;99.90;;;;;;5065317;28;20039;-60
2022/07/18 08:30:24;;;;;;;7.63;1.60;;;23.20;99.90;;;;;;5064871;28;20028;-60
2022/07/18 08:32:49;;;;;;;4.57;1.48;;;23.30;99.90;;;;;;5060680;28;20029;-60
2022/07/18 08:35:15;;;;;;;5.05;1.55;;;23.50;99.90;;;;;;5061295;28;20095;-61
2022/07/18 08:37:41;;;;;;;2.10;1.35;;;23.60;99.90;;;;;;5053827;28;20035;-59
2022/07/18 08:40:07;;;;;;;5.07;1.75;;;23.70;99.90;;;;;;5061848;28;20017;-60
2022/07/18 08:42:34;;;;;;;4.72;1.70;;;23.90;99.90;;;;;;5062043;28;20029;-60
2022/07/18 08:45:00;;;;;;;5.60;1.60;;;24.00;99.90;;;;;;5064264;28;20031;-60
2022/07/18 08:47:29;;;;;;;5.68;1.55;;;24.10;99.90;;;;;;5062908;28;20029;-60
2022/07/18 08:49:54;;;;;;;4.72;1.40;;;24.20;99.90;;;;;;5059714;28;20052;-59
2022/07/18 08:52:21;;;;;;;6.55;1.63;;;24.40;99.90;;;;;;5057748;28;20497;-59
2022/07/18 08:54:48;;;;;;;3.72;1.60;;;24.60;99.90;;;;;;5062702;28;20070;-59
2022/07/18 08:57:15;;;;;;;3.40;1.52;;;24.70;99.90;;;;;;5060468;28;20052;-60
2022/07/18 08:59:41;;;;;;;2.38;1.67;;;24.90;99.90;;;;;;5064248;28;20086;-60
2022/07/18 09:02:10;;;;;;;2.70;1.50;;;24.90;99.90;;;;;;5064268;28;20068;-60
2022/07/18 09:04:37;;;;;;;6.47;1.45;;;25.00;99.90;;;;;;5065130;28;20036;-60
2022/07/18 09:07:04;;;;;;;6.40;1.35;;;25.10;99.90;;;;;;5060336;28;20443;-60
2022/07/18 09:09:30;;;;;;;7.82;1.70;;;25.20;99.90;;;;;;5059717;28;20024;-61
2022/07/18 09:12:02;;;;;;;8.18;1.60;;;25.40;99.90;;;;;;5064726;28;20129;-60
2022/07/18 09:14:42;;;;;;;1.40;1.30;;;25.50;99.90;;;;;;5065300;28;20631;-60
2022/07/18 09:17:23;;;;;;;4.65;1.52;;;25.80;99.90;;;;;;5064307;28;20072;-60
2022/07/18 09:20:03;;;;;;;5.90;1.58;;;25.90;99.90;;;;;;5067211;28;20139;-60
2022/07/18 09:22:32;;;;;;;8.10;1.63;;;26.10;99.90;;;;;;5062648;28;20037;-60
2022/07/18 09:25:08;;;;;;;7.28;1.45;;;26.20;99.90;;;;;;5064585;28;20070;-60
2022/07/18 09:27:40;;;;;;;9.05;1.40;;;26.40;99.90;;;;;;5068600;28;20012;-60
2022/07/18 09:30:18;;;;;;;6.80;1.58;;;26.50;99.90;;;;;;5064955;28;20112;-60
2022/07/18 09:33:02;;;;;;;4.85;1.10;;;26.80;99.90;;;;;;5067223;28;20017;-60
2022/07/18 09:35:29;;;;;;;11.45;1.50;;;26.90;99.90;;;;;;5065544;28;20494;-60
2022/07/18 09:38:07;;;;;;;3.08;1.38;;;27.10;99.90;;;;;;5058296;28;20035;-60
2022/07/18 09:40:44;;;;;;;5.95;1.50;;;27.30;99.90;;;;;;5061125;28;20028;-60
2022/07/18 09:43:13;;;;;;;6.03;1.42;;;27.40;99.90;;;;;;5066687;28;20044;-61
2022/07/18 09:45:47;;;;;;;3.15;1.17;;;27.50;99.90;;;;;;5066624;28;20078;-61
2022/07/18 09:48:16;;;;;;;2.05;1.10;;;27.70;99.90;;;;;;5066274;28;20028;-61
2022/07/18 09:50:52;;;;;;;2.47;1.48;;;27.90;99.90;;;;;;5067187;28;20086;-61
2022/07/18 09:53:25;;;;;;;2.83;1.10;;;28.00;99.90;;;;;;5069828;28;20024;-60
2022/07/18 09:55:55;;;;;;;2.38;1.20;;;28.20;99.90;;;;;;5063047;28;20048;-61
2022/07/18 09:58:41;;;;;;;3.15;1.60;;;28.40;99.80;;;;;;5070052;28;20540;-61
2022/07/18 10:01:09;;;;;;;1.60;1.00;;;28.60;98.80;;;;;;5069895;28;20068;-61
2022/07/18 10:03:35;;;;;;;4.03;1.27;;;28.70;97.00;;;;;;5068740;28;20450;-61
2022/07/18 10:06:02;;;;;;;4.80;1.20;;;28.80;96.70;;;;;;5069307;28;20020;-60
2022/07/18 10:08:30;;;;;;;1.10;0.80;;;28.90;95.90;;;;;;5070434;28;20027;-60
2022/07/18 10:11:01;;;;;;;4.03;1.35;;;29.00;96.00;;;;;;5064460;28;20091;-60
2022/07/18 10:13:29;;;;;;;3.58;0.88;;;29.00;95.10;;;;;;5068498;28;20024;-60
2022/07/18 10:15:56;;;;;;;2.72;1.10;;;29.20;95.30;;;;;;5070245;28;20028;-61
2022/07/18 10:18:24;;;;;;;6.32;1.20;;;29.60;95.70;;;;;;5068805;28;20394;-61
2022/07/18 10:20:59;;;;;;;3.03;1.17;;;29.90;95.90;;;;;;5068182;28;20028;-59
2022/07/18 10:24:00;;;;;;;3.85;1.50;;;30.00;92.00;;;;;;5064554;28;20025;-61
2022/07/18 10:26:27;;;;;;;2.63;1.23;;;30.00;90.80;;;;;;5004857;28;20479;-61
2022/07/18 10:28:59;;;;;;;5.97;1.40;;;30.10;91.60;;;;;;5057157;28;20024;-60
2022/07/18 10:31:33;;;;;;;4.18;1.58;;;30.20;90.00;;;;;;5068952;28;20055;-60
2022/07/18 10:34:07;;;;;;;4.07;1.20;;;30.50;90.00;;;;;;5068874;28;20021;-61
2022/07/18 10:36:40;;;;;;;6.18;1.10;;;30.80;88.20;;;;;;5063752;28;20019;-61
2022/07/18 10:39:07;;;;;;;6.78;1.27;;;31.10;87.40;;;;;;5068683;28;20081;-61
2022/07/18 10:41:57;;;;;;;3.65;1.10;;;31.30;86.40;;;;;;5059415;28;20088;-61
2022/07/18 10:44:29;;;;;;;4.75;1.35;;;31.40;86.70;;;;;;5056338;28;20090;-61
2022/07/18 10:47:08;;;;;;;7.93;1.50;;;31.60;82.70;;;;;;5068641;28;20028;-61
2022/07/18 10:49:52;;;;;;;4.53;1.10;;;31.40;81.90;;;;;;5069849;28;20027;-61
2022/07/18 10:52:32;;;;;;;;;;;31.30;84.60;;;;;;5070800;28;20369;-60
2022/07/18 10:55:04;;;;;;;4.85;1.05;;;31.70;82.40;;;;;;5070407;28;19909;-61
2022/07/18 10:57:53;;;;;;;3.60;1.20;;;31.90;81.30;;;;;;5067758;28;20029;-61
2022/07/18 11:00:33;;;;;;;2.72;1.13;;;31.50;79.20;;;;;;5040059;28;20144;-61
2022/07/18 11:03:10;;;;;;;2.58;1.30;;;31.50;78.90;;;;;;5064464;28;20024;-61
2022/07/18 11:05:44;;;;;;;2.10;1.02;;;31.60;76.50;;;;;;5068385;28;20025;-61
2022/07/18 11:08:12;;;;;;;2.05;1.00;;;31.60;76.60;;;;;;5071122;28;20028;-60
2022/07/18 11:13:24;;;;;;;2.80;1.20;;;31.90;74.40;;;;;;5069557;28;20032;-61
2022/07/18 11:16:14;;;;;;;3.47;1.40;;;31.90;74.90;;;;;;5066794;28;20025;-63
2022/07/18 11:18:43;;;;;;;2.95;1.23;;;31.80;74.80;;;;;;5064132;28;20077;-61
2022/07/18 11:21:31;;;;;;;5.53;1.15;;;32.20;78.30;;;;;;5070007;28;20077;-61
2022/07/18 11:24:04;;;;;;;5.55;1.27;;;32.50;74.00;;;;;;5068613;28;20736;-61
2022/07/18 11:26:30;;;;;;;3.95;1.30;;;32.70;73.10;;;;;;5069859;28;20029;-60
2022/07/18 11:29:03;;;;;;;7.05;1.23;;;32.50;73.30;;;;;;5068772;28;20972;-61
2022/07/18 11:31:30;;;;;;;2.35;0.95;;;32.20;72.00;;;;;;5069359;28;20021;-61
2022/07/18 11:33:58;;;;;;;4.10;1.20;;;32.20;71.30;;;;;;5070373;28;20035;-61
2022/07/18 11:36:30;;;;;;;3.50;0.80;;;32.30;72.30;;;;;;5067925;28;20440;-61
2022/07/18 11:39:01;;;;;;;1.77;1.17;;;32.20;71.60;;;;;;5067474;28;20064;-61
2022/07/18 11:41:27;;;;;;;3.17;1.42;;;32.30;71.90;;;;;;5068420;28;20063;-61
2022/07/18 11:43:54;;;;;;;6.18;1.10;;;32.50;73.50;;;;;;5067712;28;20048;-61
2022/07/18 11:46:24;;;;;;;3.47;1.20;;;32.70;69.60;;;;;;5068861;28;20016;-62
2022/07/18 11:49:05;;;;;;;4.60;1.00;;;32.80;69.70;;;;;;5067745;28;20103;-62
2022/07/18 11:51:36;;;;;;;3.58;1.13;;;33.20;69.50;;;;;;5067640;28;20024;-61
2022/07/18 11:54:02;;;;;;;2.50;1.48;;;33.40;79.70;;;;;;5068788;28;20024;-62
2022/07/18 11:56:27;;;;;;;5.10;0.95;;;33.80;70.00;;;;;;5069781;28;20032;-62
2022/07/18 11:58:53;;;;;;;6.22;1.25;;;33.80;69.60;;;;;;5067642;28;20032;-62
2022/07/18 12:01:19;;;;;;;3.08;0.90;;;33.90;67.90;;;;;;5067665;28;20507;-62
2022/07/18 12:03:47;;;;;;;1.77;0.90;;;34.40;71.80;;;;;;5057374;28;20368;-62
2022/07/18 12:06:21;;;;;;;6.07;1.23;;;34.00;72.60;;;;;;5068056;28;20023;-62
2022/07/18 12:08:48;;;;;;;1.23;1.00;;;33.90;66.00;;;;;;5066616;28;20059;-62
2022/07/18 12:11:34;;;;;;;1.98;0.82;;;33.60;67.40;;;;;;5068802;28;20056;-61
2022/07/18 12:14:09;;;;;;;2.90;1.10;;;33.90;67.80;;;;;;5066657;28;20469;-62
2022/07/18 12:16:36;;;;;;;1.67;1.10;;;34.40;69.30;;;;;;5061717;28;20024;-62
2022/07/18 12:19:24;;;;;;;0.80;0.80;;;34.20;68.90;;;;;;5069059;28;20016;-61
2022/07/18 12:21:55;;;;;;;3.45;1.17;;;34.80;72.60;;;;;;5065811;28;20025;-62
2022/07/18 12:24:28;;;;;;;1.40;0.88;;;34.80;68.90;;;;;;5068510;28;20107;-62
2022/07/18 12:27:16;;;;;;;1.60;1.00;;;35.10;66.00;;;;;;5068610;28;20070;-61
2022/07/18 12:30:02;;;;;;;2.45;1.15;;;35.50;62.80;;;;;;5065909;28;20044;-61
2022/07/18 12:32:39;;;;;;;2.45;1.20;;;35.60;65.70;;;;;;5062514;28;20031;-62
2022/07/18 12:35:10;;;;;;;3.60;1.10;;;35.00;71.00;;;;;;5062814;28;20044;-62
2022/07/18 12:37:35;;;;;;;1.95;0.98;;;34.90;74.60;;;;;;5066068;28;20066;-62
2022/07/18 12:40:07;;;;;;;2.45;1.33;;;35.20;68.00;;;;;;5063700;28;20060;-61
2022/07/18 12:42:39;;;;;;;2.22;1.02;;;35.50;62.60;;;;;;5064852;28;20070;-62
2022/07/18 12:45:06;;;;;;;6.53;1.52;;;35.30;59.30;;;;;;5067389;28;20020;-62
2022/07/18 12:47:32;;;;;;;5.10;1.38;;;34.70;59.20;;;;;;5067971;28;20671;-62
2022/07/18 12:49:57;;;;;;;3.00;1.25;;;34.80;60.00;;;;;;5067475;28;20509;-62
2022/07/18 12:52:23;;;;;;;4.53;1.27;;;35.10;60.40;;;;;;5065094;28;20032;-62
2022/07/18 12:54:50;;;;;;;2.38;0.93;;;35.20;61.80;;;;;;5067435;28;20471;-62
2022/07/18 12:57:16;;;;;;;2.58;1.33;;;35.30;59.20;;;;;;5065647;28;20402;-62